Time;durP1;ratioP1;P1;durP2;ratioP2;P2;SDS_P1;SDS_P2;PMS_P1;PMS_P2;Temp;Humidity;BMP_temperature;BMP_pressure;BME280_temperature;BME280_humidity;BME280_pressure;Samples;Min_cycle;Max_cycle;Signal;HPM_P1;HPM_P2
2023/11/06 00:01:54;;;;;;;40.35;28.40;;;332.90;2329.60;;;;;;5011267;28;20044;-69
2023/11/06 00:04:20;;;;;;;33.67;21.58;;;332.90;2329.60;;;;;;5011508;28;20032;-70
2023/11/06 00:06:45;;;;;;;19.83;12.02;;;333.00;2329.60;;;;;;5010759;28;20112;-69
2023/11/06 00:09:11;;;;;;;18.85;10.75;;;333.10;2329.60;;;;;;5014087;28;20022;-68
2023/11/06 00:11:37;;;;;;;22.63;14.43;;;333.10;2329.60;;;;;;5021108;28;20029;-69
2023/11/06 00:14:03;;;;;;;21.73;14.48;;;333.30;2329.60;;;;;;5020529;28;20088;-63
2023/11/06 00:16:28;;;;;;;17.50;12.95;;;333.30;2329.60;;;;;;5019573;28;20022;-65
2023/11/06 00:18:54;;;;;;;9.07;6.13;;;333.30;2329.60;;;;;;5021089;28;20041;-66
2023/11/06 00:21:21;;;;;;;11.43;4.47;;;333.40;2329.60;;;;;;5020023;28;20125;-68
2023/11/06 00:23:47;;;;;;;8.65;3.67;;;333.40;2329.60;;;;;;5019541;28;20443;-68
2023/11/06 00:26:14;;;;;;;9.82;4.15;;;333.40;2329.60;;;;;;5020999;28;20486;-68
2023/11/06 00:28:41;;;;;;;9.95;8.95;;;333.50;2329.60;;;;;;5020168;28;20404;-67
2023/11/06 00:31:06;;;;;;;17.27;15.15;;;333.40;2329.60;;;;;;5019327;28;20066;-65
2023/11/06 00:33:32;;;;;;;22.55;14.57;;;333.40;2329.60;;;;;;5021058;28;20580;-63
2023/11/06 00:35:58;;;;;;;15.20;13.75;;;333.40;2329.60;;;;;;5019013;28;20101;-70
2023/11/06 00:38:23;;;;;;;14.23;9.82;;;333.40;2329.60;;;;;;5018815;28;20033;-69
2023/11/06 00:40:50;;;;;;;11.98;8.18;;;333.30;2329.60;;;;;;5021108;28;20543;-70
2023/11/06 00:43:16;;;;;;;12.13;6.95;;;333.20;2329.60;;;;;;5019632;28;20053;-68
2023/11/06 00:45:42;;;;;;;10.95;6.63;;;333.20;2329.60;;;;;;5019345;28;20066;-64
2023/11/06 00:48:07;;;;;;;12.07;6.95;;;333.20;2329.60;;;;;;5020979;28;20032;-68
2023/11/06 00:50:33;;;;;;;6.28;3.65;;;333.20;2329.60;;;;;;5019168;28;20026;-66
2023/11/06 00:52:59;;;;;;;13.48;6.40;;;333.20;2329.60;;;;;;5019848;28;20502;-69
2023/11/06 00:55:27;;;;;;;8.25;3.22;;;333.20;2329.60;;;;;;5020765;28;20067;-70
2023/11/06 00:57:53;;;;;;;8.40;5.22;;;333.20;2329.60;;;;;;5019410;28;20049;-69
2023/11/06 01:00:22;;;;;;;10.93;5.78;;;333.10;2329.60;;;;;;5019425;28;20471;-69
2023/11/06 01:02:48;;;;;;;10.00;4.93;;;333.00;2329.60;;;;;;5018753;28;20044;-68
2023/11/06 01:05:14;;;;;;;26.05;15.73;;;333.10;2329.60;;;;;;5023575;28;20481;-70
2023/11/06 01:07:40;;;;;;;19.15;9.27;;;333.00;2329.60;;;;;;5025954;28;20029;-70
2023/11/06 01:10:07;;;;;;;13.30;8.93;;;332.90;2329.60;;;;;;5031850;28;20029;-70
2023/11/06 01:12:33;;;;;;;11.48;6.07;;;332.80;2329.60;;;;;;5016333;28;20503;-66
2023/11/06 01:14:59;;;;;;;13.75;6.97;;;332.80;2329.60;;;;;;5017621;28;20436;-68
2023/11/06 01:17:25;;;;;;;7.32;4.38;;;332.90;2329.60;;;;;;5015748;28;20029;-63
2023/11/06 01:19:51;;;;;;;11.82;4.40;;;332.80;2329.60;;;;;;5025069;28;20026;-63
2023/11/06 01:22:17;;;;;;;8.00;3.92;;;332.90;2329.60;;;;;;5028795;28;20411;-70
2023/11/06 01:24:43;;;;;;;5.45;3.60;;;332.90;2329.60;;;;;;5027501;28;20512;-66
2023/11/06 01:27:09;;;;;;;11.02;4.35;;;332.80;2329.60;;;;;;5018799;28;20022;-68
2023/11/06 01:29:36;;;;;;;5.55;2.63;;;332.80;2329.60;;;;;;5020593;28;20109;-67
2023/11/06 01:32:03;;;;;;;14.15;6.78;;;332.90;2329.60;;;;;;5023831;28;20034;-70
2023/11/06 01:34:29;;;;;;;6.47;3.50;;;333.30;2329.60;;;;;;5027403;28;20041;-68
2023/11/06 01:36:55;;;;;;;7.43;4.03;;;332.90;2329.60;;;;;;5024947;28;20029;-71
2023/11/06 01:39:22;;;;;;;9.82;4.40;;;332.90;2329.60;;;;;;5032536;28;20025;-69
2023/11/06 01:41:48;;;;;;;16.25;4.75;;;332.80;2329.60;;;;;;5019508;28;20022;-69
2023/11/06 01:44:15;;;;;;;10.05;4.63;;;332.80;2329.60;;;;;;5026115;28;20029;-69
2023/11/06 01:46:41;;;;;;;6.22;3.08;;;308.10;2304.00;;;;;;5025855;28;20033;-69
2023/11/06 01:49:07;;;;;;;7.00;2.33;;;307.90;2304.00;;;;;;5020202;28;20087;-68
2023/11/06 01:51:35;;;;;;;7.55;3.63;;;308.00;2304.00;;;;;;5039796;28;20028;-68
2023/11/06 01:54:03;;;;;;;5.95;2.88;;;308.10;2304.00;;;;;;5028160;28;20049;-69
2023/11/06 01:56:36;;;;;;;5.28;2.72;;;308.00;2304.00;;;;;;5033195;28;20439;-69
2023/11/06 01:59:04;;;;;;;6.00;2.60;;;308.00;2304.00;;;;;;5022941;28;20041;-68
2023/11/06 02:01:35;;;;;;;6.13;2.20;;;308.10;2304.00;;;;;;5030681;28;20087;-68
2023/11/06 02:04:03;;;;;;;8.35;2.22;;;308.10;2304.00;;;;;;5035565;28;20033;-69
2023/11/06 02:06:30;;;;;;;8.20;4.30;;;332.90;2329.60;;;;;;5036898;28;20497;-68
2023/11/06 02:08:58;;;;;;;7.45;3.20;;;308.10;2304.00;;;;;;5027597;28;20038;-69
2023/11/06 02:11:24;;;;;;;8.20;3.50;;;308.10;2304.00;;;;;;5029677;28;20040;-69
2023/11/06 02:13:50;;;;;;;9.30;4.85;;;308.10;2304.00;;;;;;5028852;28;20030;-71
2023/11/06 02:16:15;;;;;;;11.93;6.15;;;307.90;2304.00;;;;;;5022587;28;20390;-71
2023/11/06 02:18:41;;;;;;;5.85;2.78;;;307.80;2304.00;;;;;;5034868;28;20064;-68
2023/11/06 02:21:07;;;;;;;6.50;3.00;;;307.80;2304.00;;;;;;5014994;28;20092;-69
2023/11/06 02:23:33;;;;;;;7.45;3.08;;;307.90;2304.00;;;;;;5019718;28;20029;-67
2023/11/06 02:25:59;;;;;;;7.03;2.25;;;307.90;2304.00;;;;;;5025005;28;20531;-68
2023/11/06 02:28:25;;;;;;;5.05;2.00;;;307.80;2304.00;;;;;;5018042;28;20029;-62
2023/11/06 02:30:52;;;;;;;3.28;1.95;;;308.00;2304.00;;;;;;5030117;28;20033;-68
2023/11/06 02:33:21;;;;;;;6.80;2.05;;;308.10;2304.00;;;;;;5040156;28;20021;-66
2023/11/06 02:35:50;;;;;;;10.23;2.72;;;308.00;2304.00;;;;;;5031102;28;20033;-70
2023/11/06 02:38:15;;;;;;;5.03;2.13;;;307.90;2304.00;;;;;;5027168;28;20036;-69
2023/11/06 02:40:42;;;;;;;4.72;2.05;;;307.80;2304.00;;;;;;5027540;28;20037;-66
2023/11/06 02:43:08;;;;;;;3.10;1.27;;;307.70;2304.00;;;;;;5025405;28;20036;-67
2023/11/06 02:45:33;;;;;;;4.93;1.63;;;307.80;2304.00;;;;;;5023568;28;20108;-69
2023/11/06 02:47:59;;;;;;;5.65;1.73;;;307.80;2304.00;;;;;;5035265;28;20049;-68
2023/11/06 02:50:26;;;;;;;4.55;1.98;;;307.80;2304.00;;;;;;5039749;28;20086;-67
2023/11/06 02:52:53;;;;;;;4.72;1.85;;;307.70;2304.00;;;;;;5035141;28;20100;-68
2023/11/06 02:55:19;;;;;;;3.65;1.95;;;307.70;2304.00;;;;;;5028958;28;20040;-69
2023/11/06 02:57:45;;;;;;;4.43;2.05;;;307.70;2304.00;;;;;;5034572;28;20033;-72
2023/11/06 03:00:11;;;;;;;4.72;1.90;;;307.70;2304.00;;;;;;5042767;28;20051;-72
2023/11/06 03:02:38;;;;;;;3.10;1.70;;;307.70;2304.00;;;;;;5044419;28;20033;-70
2023/11/06 03:05:04;;;;;;;7.25;1.90;;;307.70;2304.00;;;;;;5038767;28;20026;-70
2023/11/06 03:07:33;;;;;;;3.60;1.60;;;307.70;2304.00;;;;;;5026462;28;20025;-70
2023/11/06 03:09:59;;;;;;;8.48;2.65;;;307.70;2304.00;;;;;;5039353;28;20468;-75
2023/11/06 03:12:25;;;;;;;4.80;2.05;;;307.60;2304.00;;;;;;5026630;28;20028;-65
2023/11/06 03:14:51;;;;;;;7.30;1.77;;;307.60;2304.00;;;;;;5032934;28;20041;-70
2023/11/06 03:17:18;;;;;;;4.70;1.50;;;307.70;2304.00;;;;;;5033256;28;20021;-68
2023/11/06 03:19:44;;;;;;;4.60;1.60;;;307.70;2304.00;;;;;;5035848;28;20098;-69
2023/11/06 03:22:09;;;;;;;7.38;1.90;;;307.60;2304.00;;;;;;5032307;28;20479;-67
2023/11/06 03:24:35;;;;;;;4.80;1.95;;;307.60;2304.00;;;;;;5030141;28;20033;-69
2023/11/06 03:27:01;;;;;;;2.63;1.48;;;307.70;2304.00;;;;;;5038069;28;20040;-68
2023/11/06 03:29:26;;;;;;;5.15;1.70;;;307.70;2304.00;;;;;;5031378;28;20041;-68
2023/11/06 03:31:52;;;;;;;3.67;1.50;;;307.60;2304.00;;;;;;5036736;28;20026;-70
2023/11/06 03:34:19;;;;;;;3.40;1.65;;;307.70;2304.00;;;;;;5030403;28;20136;-69
2023/11/06 03:36:45;;;;;;;9.50;2.03;;;307.80;2304.00;;;;;;5031631;28;20245;-68
2023/11/06 03:39:12;;;;;;;7.43;2.33;;;307.80;2304.00;;;;;;5028859;28;20365;-70
2023/11/06 03:41:37;;;;;;;5.90;1.70;;;307.70;2304.00;;;;;;5031078;28;20071;-67
2023/11/06 03:44:03;;;;;;;8.10;2.15;;;307.40;2304.00;;;;;;5025247;28;20029;-68
2023/11/06 03:46:29;;;;;;;5.07;2.17;;;307.30;2304.00;;;;;;5025212;28;20110;-69
2023/11/06 03:48:55;;;;;;;4.38;1.80;;;307.30;2304.00;;;;;;5023640;28;20101;-64
2023/11/06 03:51:20;;;;;;;3.65;1.60;;;307.30;2304.00;;;;;;5026937;28;20108;-69
2023/11/06 03:53:46;;;;;;;3.25;1.63;;;307.40;2304.00;;;;;;5031416;28;20096;-69
2023/11/06 03:56:12;;;;;;;5.35;1.70;;;307.50;2304.00;;;;;;5023524;28;20022;-68
2023/11/06 03:58:38;;;;;;;3.15;1.33;;;307.50;2304.00;;;;;;5024471;28;20025;-69
2023/11/06 04:01:04;;;;;;;5.28;1.42;;;307.50;2304.00;;;;;;5025757;28;20032;-68
2023/11/06 04:03:30;;;;;;;6.70;1.23;;;307.60;2304.00;;;;;;5042001;28;20028;-70
2023/11/06 04:05:55;;;;;;;6.55;1.73;;;307.50;2304.00;;;;;;5029330;28;20075;-68
2023/11/06 04:08:21;;;;;;;8.05;2.75;;;307.30;2304.00;;;;;;5030061;28;20037;-70
2023/11/06 04:10:51;;;;;;;4.75;1.85;;;307.30;2304.00;;;;;;5028160;28;20051;-70
2023/11/06 04:13:17;;;;;;;4.55;1.65;;;282.50;2278.40;;;;;;5028241;28;20105;-63
2023/11/06 04:15:42;;;;;;;6.57;1.70;;;307.20;2304.00;;;;;;5021326;28;20394;-69
2023/11/06 04:18:08;;;;;;;6.25;2.15;;;307.30;2304.00;;;;;;5021975;28;20033;-70
2023/11/06 04:20:35;;;;;;;4.38;1.50;;;307.40;2304.00;;;;;;5033825;28;20033;-69
2023/11/06 04:23:01;;;;;;;4.45;2.05;;;307.40;2304.00;;;;;;5020070;28;20060;-69
2023/11/06 04:25:26;;;;;;;3.90;1.70;;;307.50;2304.00;;;;;;5023009;28;20057;-69
2023/11/06 04:27:52;;;;;;;8.32;3.92;;;307.70;2304.00;;;;;;5030695;28;20036;-70
2023/11/06 04:30:18;;;;;;;5.20;2.33;;;307.70;2304.00;;;;;;5035481;28;20471;-70
2023/11/06 04:32:44;;;;;;;4.88;2.25;;;307.60;2304.00;;;;;;5038707;28;20040;-69
2023/11/06 04:35:09;;;;;;;6.80;1.90;;;307.40;2304.00;;;;;;5031879;28;20033;-70
2023/11/06 04:37:36;;;;;;;7.43;4.30;;;307.50;2304.00;;;;;;5019974;28;20084;-68
2023/11/06 04:40:05;;;;;;;16.00;8.70;;;307.60;2304.00;;;;;;5036218;28;20421;-70
2023/11/06 04:42:34;;;;;;;15.30;10.38;;;307.40;2304.00;;;;;;5021359;28;20061;-69
2023/11/06 04:45:00;;;;;;;11.23;7.22;;;307.40;2304.00;;;;;;5032245;28;20029;-70
2023/11/06 04:47:27;;;;;;;8.45;5.63;;;307.30;2304.00;;;;;;5026378;28;20026;-68
2023/11/06 04:49:53;;;;;;;6.43;3.80;;;307.30;2304.00;;;;;;5032264;28;20037;-69
2023/11/06 04:52:19;;;;;;;4.32;2.65;;;307.30;2304.00;;;;;;5032207;28;20025;-70
2023/11/06 04:54:44;;;;;;;6.25;2.08;;;307.40;2304.00;;;;;;5026926;28;20036;-69
2023/11/06 04:57:10;;;;;;;8.55;5.45;;;307.50;2304.00;;;;;;5028470;28;20025;-70
2023/11/06 04:59:37;;;;;;;9.77;3.97;;;307.50;2304.00;;;;;;5037083;28;20030;-69
2023/11/06 05:02:04;;;;;;;9.73;3.97;;;307.40;2304.00;;;;;;5029064;28;20109;-67
2023/11/06 05:04:30;;;;;;;7.07;3.10;;;307.40;2304.00;;;;;;5039584;28;20032;-68
2023/11/06 05:06:57;;;;;;;4.47;2.45;;;307.20;2304.00;;;;;;5019556;28;20026;-68
2023/11/06 05:09:23;;;;;;;8.75;2.65;;;282.50;2278.40;;;;;;5024243;28;20025;-68
2023/11/06 05:11:49;;;;;;;8.45;4.93;;;282.50;2278.40;;;;;;5030821;28;20618;-69
2023/11/06 05:14:15;;;;;;;8.23;3.80;;;282.40;2278.40;;;;;;5022327;28;20041;-70
2023/11/06 05:16:40;;;;;;;9.73;2.90;;;282.30;2278.40;;;;;;5029009;28;20109;-70
2023/11/06 05:19:06;;;;;;;4.55;2.25;;;282.30;2278.40;;;;;;5024578;28;20379;-68
2023/11/06 05:21:32;;;;;;;8.80;5.40;;;282.40;2278.40;;;;;;5025818;28;20510;-68
2023/11/06 05:23:57;;;;;;;7.43;3.22;;;282.50;2278.40;;;;;;5039953;28;20017;-69
2023/11/06 05:26:23;;;;;;;8.25;2.67;;;282.50;2278.40;;;;;;5028008;28;20088;-69
2023/11/06 05:28:49;;;;;;;11.18;3.22;;;282.50;2278.40;;;;;;5030111;28;20022;-70
2023/11/06 05:31:15;;;;;;;14.73;9.70;;;282.50;2278.40;;;;;;5023734;28;20121;-68
2023/11/06 05:33:41;;;;;;;18.27;10.65;;;282.50;2278.40;;;;;;5035534;28;20112;-70
2023/11/06 05:36:09;;;;;;;102.70;83.43;;;282.50;2278.40;;;;;;5020903;28;20184;-70
2023/11/06 05:38:35;;;;;;;10.88;4.57;;;282.50;2278.40;;;;;;5021969;28;20030;-63
2023/11/06 05:41:01;;;;;;;10.48;4.32;;;282.40;2278.40;;;;;;5033430;28;20084;-68
2023/11/06 05:43:26;;;;;;;13.18;4.93;;;282.50;2278.40;;;;;;5024117;28;20468;-69
2023/11/06 05:45:52;;;;;;;12.90;4.55;;;307.30;2304.00;;;;;;5029067;28;20465;-69
2023/11/06 05:48:19;;;;;;;12.50;6.00;;;307.50;2304.00;;;;;;5026544;28;20112;-70
2023/11/06 05:50:45;;;;;;;10.60;6.55;;;307.70;2304.00;;;;;;5019979;28;20029;-70
2023/11/06 05:53:11;;;;;;;14.13;7.75;;;307.70;2304.00;;;;;;5028086;28;20025;-70
2023/11/06 05:55:37;;;;;;;10.40;5.03;;;307.80;2304.00;;;;;;5024820;28;20080;-68
2023/11/06 05:58:02;;;;;;;13.68;6.28;;;307.90;2304.00;;;;;;5025053;28;20041;-68
2023/11/06 06:00:30;;;;;;;12.70;7.65;;;307.90;2304.00;;;;;;5020905;28;20050;-64
2023/11/06 06:03:02;;;;;;;13.57;7.93;;;307.80;2304.00;;;;;;5034009;28;20371;-68
2023/11/06 06:05:27;;;;;;;21.98;11.38;;;307.80;2304.00;;;;;;5027089;28;20369;-67
2023/11/06 06:07:53;;;;;;;14.88;6.15;;;307.90;2304.00;;;;;;5034093;28;20032;-68
2023/11/06 06:10:19;;;;;;;7.00;4.00;;;307.90;2304.00;;;;;;5027187;28;20041;-69
2023/11/06 06:12:47;;;;;;;11.02;5.82;;;307.90;2304.00;;;;;;5034283;28;20091;-68
2023/11/06 06:15:13;;;;;;;9.77;5.60;;;308.10;2304.00;;;;;;5028772;28;20049;-66
2023/11/06 06:17:40;;;;;;;10.13;4.95;;;332.90;2329.60;;;;;;5031680;28;20472;-67
2023/11/06 06:20:12;;;;;;;10.70;5.03;;;333.00;2329.60;;;;;;5032506;28;20055;-68
2023/11/06 06:22:41;;;;;;;18.17;5.10;;;333.10;2329.60;;;;;;5022619;28;20037;-65
2023/11/06 06:25:08;;;;;;;11.70;5.05;;;333.20;2329.60;;;;;;5034704;28;20038;-67
2023/11/06 06:27:37;;;;;;;7.38;4.20;;;333.20;2329.60;;;;;;5035890;28;20029;-67
2023/11/06 06:30:07;;;;;;;10.45;4.28;;;333.20;2329.60;;;;;;5038111;28;20030;-63
2023/11/06 06:32:33;;;;;;;7.57;2.30;;;333.20;2329.60;;;;;;5034835;28;20029;-65
2023/11/06 06:34:59;;;;;;;6.45;3.22;;;333.40;2329.60;;;;;;5036037;28;20044;-70
2023/11/06 06:37:24;;;;;;;4.30;2.40;;;333.50;2329.60;;;;;;5031275;28;20485;-67
2023/11/06 06:39:50;;;;;;;6.07;2.50;;;333.50;2329.60;;;;;;5030352;28;20047;-68
2023/11/06 06:42:17;;;;;;;8.32;2.80;;;333.50;2329.60;;;;;;5038381;28;20123;-64
2023/11/06 06:44:43;;;;;;;8.65;6.97;;;333.50;2329.60;;;;;;5023595;28;20133;-65
2023/11/06 06:47:09;;;;;;;7.10;3.05;;;333.50;2329.60;;;;;;5027433;28;20108;-69
2023/11/06 06:49:41;;;;;;;10.27;5.22;;;333.50;2329.60;;;;;;5032080;28;20037;-68
2023/11/06 06:52:08;;;;;;;15.55;6.32;;;333.30;2329.60;;;;;;5022875;28;20025;-67
2023/11/06 06:54:37;;;;;;;5.70;3.28;;;333.20;2329.60;;;;;;5025365;28;20487;-65
2023/11/06 06:57:04;;;;;;;8.40;4.18;;;333.20;2329.60;;;;;;5027517;28;20079;-64
2023/11/06 06:59:29;;;;;;;10.30;4.57;;;333.20;2329.60;;;;;;5036852;28;20113;-65
2023/11/06 07:01:56;;;;;;;6.63;3.90;;;333.20;2329.60;;;;;;5022312;28;20112;-64
2023/11/06 07:04:23;;;;;;;13.27;8.15;;;333.20;2329.60;;;;;;5042002;28;20029;-62
2023/11/06 07:06:49;;;;;;;11.73;6.65;;;333.00;2329.60;;;;;;5015184;28;20042;-66
2023/11/06 07:09:15;;;;;;;10.57;5.40;;;333.00;2329.60;;;;;;5021968;28;20099;-62
2023/11/06 07:11:40;;;;;;;8.02;5.50;;;333.20;2329.60;;;;;;5032644;28;20079;-64
2023/11/06 07:14:06;;;;;;;10.63;4.47;;;333.20;2329.60;;;;;;5024199;28;20025;-66
2023/11/06 07:16:32;;;;;;;6.95;3.53;;;333.40;2329.60;;;;;;5026244;28;20037;-64
2023/11/06 07:18:58;;;;;;;9.23;3.80;;;333.40;2329.60;;;;;;5025751;28;20028;-67
2023/11/06 07:21:24;;;;;;;15.93;8.68;;;333.70;2329.60;;;;;;5021357;28;20053;-66
2023/11/06 07:23:49;;;;;;;13.77;8.43;;;358.40;2329.60;;;;;;5028392;28;20029;-66
2023/11/06 07:26:15;;;;;;;15.90;10.73;;;359.10;2329.60;;;;;;5029816;28;20095;-68
2023/11/06 07:28:42;;;;;;;9.50;5.80;;;435.90;2355.20;;;;;;5036871;28;20032;-71
2023/11/06 07:31:08;;;;;;;13.75;5.45;;;461.60;2380.80;;;;;;5027238;28;20029;-66
2023/11/06 07:33:34;;;;;;;7.05;3.65;;;460.90;2380.80;;;;;;5041098;28;20024;-65
2023/11/06 07:36:00;;;;;;;5.65;2.83;;;435.90;2355.20;;;;;;5023732;28;20045;-73
2023/11/06 07:38:25;;;;;;;12.23;7.15;;;461.70;2380.80;;;;;;5029426;28;20043;-65
2023/11/06 07:40:51;;;;;;;6.20;4.00;;;538.00;2227.20;;;;;;5027658;28;20061;-65
2023/11/06 07:43:17;;;;;;;5.35;3.63;;;589.60;1945.60;;;;;;5027451;28;20025;-64
2023/11/06 07:45:43;;;;;;;26.08;20.40;;;640.70;1766.40;;;;;;5024438;28;20125;-66
2023/11/06 07:48:08;;;;;;;32.70;27.85;;;640.30;1766.40;;;;;;5023489;28;20125;-65
2023/11/06 07:50:34;;;;;;;41.20;33.40;;;640.60;1766.40;;;;;;5033758;28;20026;-63
2023/11/06 07:53:01;;;;;;;33.08;25.50;;;691.60;1715.20;;;;;;5032357;28;20025;-65
2023/11/06 07:55:27;;;;;;;31.27;25.27;;;717.20;1638.40;;;;;;5026205;28;20037;-65
2023/11/06 07:57:53;;;;;;;26.80;23.95;;;743.10;1587.20;;;;;;5029457;28;20057;-66
2023/11/06 08:00:19;;;;;;;19.83;14.52;;;768.60;1510.40;;;;;;5020581;28;20392;-65
2023/11/06 08:02:45;;;;;;;13.75;12.23;;;793.80;1484.80;;;;;;5023619;28;20046;-65
2023/11/06 08:05:11;;;;;;;17.02;13.55;;;819.30;1408.00;;;;;;5019794;28;20033;-67
2023/11/06 08:07:38;;;;;;;14.40;12.95;;;820.10;1356.80;;;;;;5032906;28;20053;-65
2023/11/06 08:10:07;;;;;;;16.98;15.13;;;844.80;1356.80;;;;;;5020434;28;20083;-67
2023/11/06 08:12:33;;;;;;;12.25;10.57;;;845.20;1331.20;;;;;;5025159;28;20030;-66
2023/11/06 08:15:03;;;;;;;14.38;12.45;;;870.50;1280.00;;;;;;5032393;28;20045;-67
2023/11/06 08:17:29;;;;;;;17.65;10.60;;;793.90;1382.40;;;;;;5031147;28;20021;-66
2023/11/06 08:19:55;;;;;;;26.67;19.02;;;717.40;1459.20;;;;;;5032628;28;20503;-69
2023/11/06 08:22:21;;;;;;;20.58;14.60;;;691.40;1561.60;;;;;;5022995;28;20600;-64
2023/11/06 08:24:48;;;;;;;13.05;8.93;;;665.60;1612.80;;;;;;5024453;28;20495;-72
2023/11/06 08:27:14;;;;;;;17.23;12.05;;;640.10;1638.40;;;;;;5020010;28;20026;-68
2023/11/06 08:29:42;;;;;;;18.23;10.43;;;640.20;1612.80;;;;;;5023592;28;20524;-64
2023/11/06 08:32:10;;;;;;;13.43;7.85;;;614.80;1715.20;;;;;;5014716;28;20029;-65
2023/11/06 08:34:42;;;;;;;15.63;7.88;;;589.50;1715.20;;;;;;5026957;28;20045;-65
2023/11/06 08:37:10;;;;;;;20.80;15.40;;;564.10;1766.40;;;;;;5023685;28;20033;-63
2023/11/06 08:39:43;;;;;;;24.00;15.77;;;563.20;1843.20;;;;;;5028110;28;20471;-64
2023/11/06 08:42:11;;;;;;;29.15;16.75;;;538.50;1843.20;;;;;;5032313;28;20125;-66
2023/11/06 08:44:36;;;;;;;17.83;11.55;;;538.30;1868.80;;;;;;5027971;28;20037;-65
2023/11/06 08:47:03;;;;;;;23.98;17.58;;;538.00;1843.20;;;;;;5016151;28;20613;-63
2023/11/06 08:49:28;;;;;;;20.25;12.95;;;537.70;1894.40;;;;;;5016114;28;20030;-64
2023/11/06 08:51:54;;;;;;;18.27;12.20;;;537.60;1920.00;;;;;;5021077;28;20131;-63
2023/11/06 08:54:20;;;;;;;18.42;10.93;;;537.60;1945.60;;;;;;5020488;28;20471;-63
2023/11/06 08:56:46;;;;;;;12.27;8.38;;;512.80;1868.80;;;;;;5032533;28;20032;-64
2023/11/06 08:59:12;;;;;;;20.13;13.75;;;537.70;1920.00;;;;;;5039359;28;20029;-65
2023/11/06 09:01:38;;;;;;;23.63;17.73;;;512.90;1868.80;;;;;;5025536;28;20040;-63
2023/11/06 09:04:06;;;;;;;37.78;21.27;;;512.70;1868.80;;;;;;5035062;28;20075;-62
2023/11/06 09:06:32;;;;;;;44.20;33.08;;;537.80;1868.80;;;;;;5020930;28;20369;-63
2023/11/06 09:08:58;;;;;;;44.38;31.23;;;538.10;1894.40;;;;;;5025486;28;20072;-64
2023/11/06 09:11:24;;;;;;;100.97;76.57;;;538.20;1894.40;;;;;;5030369;28;20040;-63
2023/11/06 09:13:50;;;;;;;87.97;69.95;;;538.40;1971.20;;;;;;5020602;28;20065;-63
2023/11/06 09:16:17;;;;;;;57.90;43.63;;;563.30;1971.20;;;;;;5029750;28;20029;-63
2023/11/06 09:18:43;;;;;;;39.58;28.65;;;538.40;1945.60;;;;;;5031654;28;20056;-64
2023/11/06 09:21:13;;;;;;;37.58;26.05;;;538.20;1920.00;;;;;;5038556;28;20064;-63
2023/11/06 09:23:40;;;;;;;35.35;19.13;;;538.00;1945.60;;;;;;5032298;28;20701;-64
2023/11/06 09:26:07;;;;;;;29.38;19.95;;;538.20;1920.00;;;;;;5049271;28;20037;-63
2023/11/06 09:28:33;;;;;;;32.00;20.73;;;538.10;1945.60;;;;;;5046260;28;20063;-65
2023/11/06 09:30:59;;;;;;;26.25;17.95;;;538.40;1945.60;;;;;;5029839;28;20464;-65
2023/11/06 09:33:25;;;;;;;38.20;21.20;;;538.50;1920.00;;;;;;5033130;28;20017;-64
2023/11/06 09:35:50;;;;;;;36.78;20.67;;;563.40;1945.60;;;;;;5046473;28;20705;-64
2023/11/06 09:38:17;;;;;;;63.05;33.08;;;563.40;1945.60;;;;;;5042129;28;20026;-64
2023/11/06 09:40:43;;;;;;;38.95;23.35;;;538.50;1945.60;;;;;;5047351;28;20522;-65
2023/11/06 09:43:10;;;;;;;29.75;14.95;;;538.10;1945.60;;;;;;5044012;28;20059;-63
2023/11/06 09:45:36;;;;;;;25.38;15.00;;;537.80;1971.20;;;;;;5042457;28;20040;-67
2023/11/06 09:48:09;;;;;;;21.52;15.75;;;538.00;1996.80;;;;;;5043530;28;20037;-66
2023/11/06 09:50:36;;;;;;;31.88;18.15;;;538.10;1996.80;;;;;;5036247;28;20033;-66
2023/11/06 09:53:02;;;;;;;22.35;14.05;;;537.80;2048.00;;;;;;5048308;28;20032;-64
2023/11/06 09:55:28;;;;;;;24.92;12.13;;;537.60;1996.80;;;;;;5046545;28;20029;-65
2023/11/06 09:57:55;;;;;;;29.27;21.42;;;538.00;1945.60;;;;;;5035913;28;20060;-67
2023/11/06 10:00:22;;;;;;;26.70;14.52;;;538.10;1971.20;;;;;;5042056;28;20386;-65
2023/11/06 10:02:53;;;;;;;20.35;15.27;;;538.40;1971.20;;;;;;5036083;28;20128;-68
2023/11/06 10:05:23;;;;;;;24.80;15.30;;;563.30;2048.00;;;;;;5034136;28;20029;-66
2023/11/06 10:07:54;;;;;;;15.82;11.45;;;563.30;2048.00;;;;;;5038511;28;21314;-64
2023/11/06 10:10:22;;;;;;;10.05;4.78;;;563.40;1996.80;;;;;;5043710;28;20078;-68
2023/11/06 10:13:04;;;;;;;6.32;4.25;;;563.60;1817.60;;;;;;5050685;28;20060;-64
2023/11/06 10:15:37;;;;;;;6.60;3.33;;;563.60;1792.00;;;;;;5043986;28;20041;-64
2023/11/06 10:18:14;;;;;;;6.28;3.47;;;563.70;1792.00;;;;;;5028974;28;20029;-65
2023/11/06 10:20:45;;;;;;;9.43;3.08;;;564.00;1766.40;;;;;;5037171;28;20037;-63
2023/11/06 10:23:11;;;;;;;4.28;2.28;;;564.00;1766.40;;;;;;5050387;28;20056;-64
2023/11/06 10:25:37;;;;;;;5.70;2.42;;;564.10;1715.20;;;;;;5023996;28;20040;-65
2023/11/06 10:28:17;;;;;;;3.20;1.67;;;588.90;1740.80;;;;;;5030634;28;20037;-64
2023/11/06 10:30:51;;;;;;;6.85;2.20;;;589.00;1715.20;;;;;;5027102;28;20556;-67
2023/11/06 10:33:18;;;;;;;10.25;2.42;;;589.00;1689.60;;;;;;5050353;28;20032;-64
2023/11/06 10:35:44;;;;;;;5.95;2.30;;;589.20;1715.20;;;;;;5049930;28;20036;-64
2023/11/06 10:38:33;;;;;;;5.43;1.80;;;589.20;1715.20;;;;;;5049660;28;20017;-70
2023/11/06 10:41:27;;;;;;;5.43;1.98;;;589.00;1689.60;;;;;;5049752;28;20032;-64
2023/11/06 10:43:57;;;;;;;3.38;1.88;;;588.90;1664.00;;;;;;5049913;28;20082;-68
2023/11/06 10:46:28;;;;;;;4.93;2.80;;;588.90;1689.60;;;;;;5049215;28;20051;-65
2023/11/06 10:49:09;;;;;;;3.95;2.08;;;588.90;1689.60;;;;;;5049493;28;20428;-64
2023/11/06 10:51:35;;;;;;;5.93;2.15;;;588.90;1689.60;;;;;;5049792;28;20739;-64
2023/11/06 10:54:01;;;;;;;6.50;1.83;;;588.90;1664.00;;;;;;5049107;28;20032;-64
2023/11/06 10:56:30;;;;;;;7.80;2.38;;;588.90;1664.00;;;;;;5049323;28;20029;-63
2023/11/06 10:58:59;;;;;;;8.57;2.22;;;588.80;1689.60;;;;;;5048980;28;20378;-64
2023/11/06 11:01:29;;;;;;;5.72;2.20;;;588.80;1689.60;;;;;;5049496;28;20032;-63
2023/11/06 11:03:56;;;;;;;5.57;2.10;;;588.80;1689.60;;;;;;5043419;28;20040;-65
2023/11/06 11:06:22;;;;;;;5.47;2.60;;;588.90;1664.00;;;;;;5021706;28;20496;-64
2023/11/06 11:08:51;;;;;;;4.05;2.00;;;588.90;1689.60;;;;;;5042127;28;20505;-65
2023/11/06 11:11:17;;;;;;;4.10;2.22;;;589.00;1689.60;;;;;;5038540;28;20033;-62
2023/11/06 11:13:43;;;;;;;3.95;1.60;;;589.20;1664.00;;;;;;5049518;28;20028;-65
2023/11/06 11:16:37;;;;;;;7.25;1.80;;;589.20;1638.40;;;;;;5049899;28;20033;-64
2023/11/06 11:19:23;;;;;;;3.53;1.70;;;589.20;1638.40;;;;;;5049752;28;20032;-66
2023/11/06 11:22:08;;;;;;;8.50;2.50;;;589.30;1638.40;;;;;;5043144;28;20103;-65
2023/11/06 11:24:46;;;;;;;5.00;2.20;;;589.20;1638.40;;;;;;5041682;28;20493;-65
2023/11/06 11:27:24;;;;;;;6.78;2.40;;;589.20;1638.40;;;;;;5040729;28;20036;-65
2023/11/06 11:29:53;;;;;;;4.45;2.55;;;589.20;1612.80;;;;;;5043447;28;20028;-65
2023/11/06 11:32:47;;;;;;;7.20;2.00;;;589.10;1612.80;;;;;;5045006;28;20029;-64
2023/11/06 11:35:14;;;;;;;3.38;1.90;;;589.30;1612.80;;;;;;5028065;28;20438;-66
2023/11/06 11:37:40;;;;;;;5.40;2.25;;;589.20;1664.00;;;;;;5022665;28;20026;-64
2023/11/06 11:40:07;;;;;;;8.10;2.00;;;588.90;1638.40;;;;;;5035401;28;20104;-70
2023/11/06 11:42:33;;;;;;;5.28;2.15;;;564.10;1638.40;;;;;;5038270;28;20029;-65
2023/11/06 11:45:07;;;;;;;6.15;1.70;;;564.00;1638.40;;;;;;5029313;28;20625;-62
2023/11/06 11:47:48;;;;;;;7.10;2.30;;;564.00;1664.00;;;;;;5031641;28;20029;-64
2023/11/06 11:50:38;;;;;;;6.38;1.98;;;563.90;1664.00;;;;;;5038778;28;20541;-72
2023/11/06 11:53:05;;;;;;;4.10;1.95;;;563.80;1664.00;;;;;;5032325;28;20020;-64
2023/11/06 11:55:31;;;;;;;4.35;2.00;;;563.60;1664.00;;;;;;5048368;28;20546;-64
2023/11/06 11:58:05;;;;;;;3.53;2.10;;;563.60;1664.00;;;;;;5042984;28;20025;-65
2023/11/06 12:00:42;;;;;;;6.00;2.05;;;563.60;1664.00;;;;;;5040148;28;20100;-65
2023/11/06 12:03:12;;;;;;;4.18;1.52;;;563.80;1638.40;;;;;;5045556;28;20033;-65
2023/11/06 12:05:39;;;;;;;4.28;2.17;;;563.90;1638.40;;;;;;5043768;28;20033;-63
2023/11/06 12:08:14;;;;;;;3.13;1.65;;;564.00;1638.40;;;;;;5039658;28;20021;-64
2023/11/06 12:10:42;;;;;;;4.00;1.75;;;564.00;1664.00;;;;;;5046083;28;20482;-66
2023/11/06 12:13:18;;;;;;;6.00;2.28;;;564.10;1612.80;;;;;;5028843;28;20045;-65